KBYI/BYI METAR and TAF weather

Enter ICAO airport designator
Station Type Date Time Source
KBYI METAR 2019/02/23 01:53 UTC NOAA

KBYI 230153Z AUTO 20005KT 10SM CLR M07/M11 A3001 RMK AO2 SLP199 T10671106


Station Type Date Time Source
KBYI Decoded METAR 2019/02/23 01:53 UTC NOAA

BURLEY MUNICIPAL AIRPORT, ID, United States (KBYI) 42-33N 113-46W 1264M
Feb 22, 2019 - 08:53 PM EST / 2019.02.23 0153 UTC
Wind: from the SSW (200 degrees) at 6 MPH (5 KT):0
Visibility: 10 mile(s):0
Sky conditions: clear
Temperature: 19.9 F (-6.7 C)
Windchill: 12 F (-11 C):1
Dew Point: 12.9 F (-10.6 C)
Relative Humidity: 73%
Pressure (altimeter): 30.01 in. Hg (1016 hPa)
ob: KBYI 230153Z AUTO 20005KT 10SM CLR M07/M11 A3001 RMK AO2 SLP199 T10671106
cycle: 2

Station Type Date Time Source
KBYI TAF 2019/02/22 19:24 UTC NOAA

TAF
AMD KBYI 221922Z 2219/2318 27009KT P6SM OVC030
FM222100 27010KT P6SM SCT020 BKN040
FM231000 22007KT P6SM VCSH OVC030


Example: see airport list